Time;durP1;ratioP1;P1;durP2;ratioP2;P2;SDS_P1;SDS_P2;PMS_P1;PMS_P2;Temp;Humidity;BMP_temperature;BMP_pressure;BME280_temperature;BME280_humidity;BME280_pressure;Samples;Min_cycle;Max_cycle;Signal;HPM_P1;HPM_P2
2022/01/15 00:00:27;;;;;;;52.90;4.38;;;5.30;90.70;;;;;;5052460;28;20032;-76
2022/01/15 00:02:53;;;;;;;83.13;5.60;;;5.30;90.70;;;;;;5032778;28;20040;-76
2022/01/15 00:05:19;;;;;;;110.72;8.25;;;5.30;90.70;;;;;;5051090;28;20439;-75
2022/01/15 00:07:47;;;;;;;69.70;6.00;;;5.20;90.70;;;;;;5014672;28;20462;-75
2022/01/15 00:10:15;;;;;;;85.57;7.40;;;5.20;90.60;;;;;;5057126;28;20520;-76
2022/01/15 00:12:41;;;;;;;59.15;5.68;;;5.20;90.60;;;;;;5044142;28;20594;-76
2022/01/15 00:15:12;;;;;;;112.10;8.37;;;5.20;90.60;;;;;;5033437;28;20064;-76
2022/01/15 00:20:10;;;;;;;101.95;7.53;;;5.10;90.70;;;;;;5052483;28;20047;-76
2022/01/15 00:22:35;;;;;;;21.40;4.13;;;5.10;90.60;;;;;;5048767;28;20052;-76
2022/01/15 00:25:01;;;;;;;81.20;6.90;;;5.10;90.70;;;;;;5040552;28;20044;-76
2022/01/15 00:27:27;;;;;;;97.10;8.97;;;5.10;90.70;;;;;;5043136;28;20044;-76
2022/01/15 00:29:52;;;;;;;75.37;7.00;;;5.20;90.60;;;;;;5066682;28;20357;-76
2022/01/15 00:32:18;;;;;;;54.33;5.63;;;5.20;90.70;;;;;;5028894;28;20051;-76
2022/01/15 00:34:44;;;;;;;43.07;5.63;;;5.20;90.70;;;;;;5018206;28;20062;-76
2022/01/15 00:37:10;;;;;;;114.33;9.57;;;5.20;90.80;;;;;;5038325;28;20052;-76
2022/01/15 00:39:36;;;;;;;76.77;8.00;;;5.20;90.70;;;;;;5033385;28;20605;-76
2022/01/15 00:42:02;;;;;;;78.10;7.75;;;5.20;90.60;;;;;;5041889;28;20417;-76
2022/01/15 00:44:28;;;;;;;107.57;9.30;;;5.20;90.70;;;;;;5050197;28;20116;-76
2022/01/15 00:46:54;;;;;;;141.37;11.33;;;5.20;90.60;;;;;;5032862;28;20512;-76
2022/01/15 00:49:19;;;;;;;117.27;9.10;;;5.20;90.70;;;;;;5064353;28;20075;-76
2022/01/15 00:51:45;;;;;;;97.67;7.70;;;5.20;90.70;;;;;;5056824;28;20059;-76
2022/01/15 00:54:11;;;;;;;45.23;5.23;;;5.10;90.70;;;;;;5054800;28;20093;-77
2022/01/15 00:56:37;;;;;;;39.03;6.40;;;5.20;90.70;;;;;;5034735;28;20037;-76
2022/01/15 00:59:03;;;;;;;168.77;12.90;;;5.10;90.70;;;;;;5062207;28;20039;-76
2022/01/15 01:01:28;;;;;;;100.30;8.67;;;5.10;90.70;;;;;;5051430;28;20362;-76
2022/01/15 01:03:54;;;;;;;183.53;13.17;;;5.20;90.70;;;;;;5049243;28;20135;-76
2022/01/15 01:06:20;;;;;;;143.80;11.47;;;5.20;90.70;;;;;;5040744;28;20032;-76
2022/01/15 01:08:45;;;;;;;116.70;10.20;;;5.10;90.70;;;;;;5038331;28;20085;-76
2022/01/15 01:11:14;;;;;;;73.97;7.10;;;5.10;90.70;;;;;;5040542;28;20155;-76
2022/01/15 01:24:24;;;;;;;169.75;13.95;;;5.10;90.70;;;;;;5049071;28;20087;-76
2022/01/15 01:31:58;;;;;;;70.60;8.48;;;5.10;90.80;;;;;;5038842;28;20045;-76
2022/01/15 01:34:26;;;;;;;175.88;16.13;;;5.20;90.70;;;;;;5030496;28;20044;-76
2022/01/15 01:37:09;;;;;;;182.13;16.60;;;5.10;90.80;;;;;;5033738;28;20142;-77
2022/01/15 01:39:51;;;;;;;67.72;9.13;;;5.20;90.80;;;;;;5063012;28;20041;-76
2022/01/15 01:45:00;;;;;;;28.63;6.43;;;5.20;90.80;;;;;;5034649;28;20429;-76
2022/01/15 01:47:39;;;;;;;57.58;9.85;;;5.20;90.80;;;;;;5063260;28;20049;-76
2022/01/15 01:50:06;;;;;;;24.52;8.07;;;5.10;90.70;;;;;;5024586;28;20440;-76
2022/01/15 01:52:32;;;;;;;31.48;9.50;;;5.10;90.80;;;;;;5032011;28;20049;-75
2022/01/15 01:54:57;;;;;;;26.27;8.13;;;5.20;90.70;;;;;;5036730;28;20053;-76
2022/01/15 01:57:23;;;;;;;26.70;8.67;;;5.20;90.80;;;;;;5031274;28;20047;-76
2022/01/15 01:59:49;;;;;;;23.17;8.60;;;5.20;90.90;;;;;;5034189;28;20409;-76
2022/01/15 02:02:15;;;;;;;23.90;8.77;;;5.20;90.80;;;;;;5065388;28;20249;-76
2022/01/15 02:04:40;;;;;;;22.20;8.67;;;5.20;90.90;;;;;;5044721;28;20083;-76
2022/01/15 02:07:06;;;;;;;25.47;8.23;;;5.20;90.80;;;;;;5034719;28;20102;-76
2022/01/15 02:09:32;;;;;;;13.87;6.60;;;5.20;90.90;;;;;;5033392;28;20044;-76
2022/01/15 02:11:58;;;;;;;30.10;9.67;;;5.20;90.90;;;;;;5022388;28;20044;-76
2022/01/15 02:14:28;;;;;;;23.93;9.07;;;5.20;90.80;;;;;;5055116;28;20037;-76
2022/01/15 02:16:54;;;;;;;15.65;7.30;;;5.20;90.80;;;;;;5047629;28;20058;-76
2022/01/15 02:19:20;;;;;;;14.95;6.88;;;5.20;90.80;;;;;;5031201;28;20349;-76
2022/01/15 02:24:30;;;;;;;26.33;9.30;;;5.20;90.80;;;;;;5060132;28;20292;-76
2022/01/15 02:26:55;;;;;;;12.03;6.80;;;5.20;90.80;;;;;;5038836;28;20044;-76
2022/01/15 02:29:21;;;;;;;22.83;8.73;;;5.20;90.80;;;;;;5032058;28;20041;-76
2022/01/15 02:31:47;;;;;;;13.97;7.50;;;5.20;90.80;;;;;;5009120;28;20056;-76
2022/01/15 02:34:12;;;;;;;14.07;7.07;;;5.20;90.80;;;;;;5054900;28;20050;-76
2022/01/15 02:36:38;;;;;;;13.50;6.57;;;5.20;90.80;;;;;;5025921;28;20033;-76
2022/01/15 02:39:05;;;;;;;15.93;7.20;;;5.20;90.90;;;;;;5020516;28;20033;-76
2022/01/15 02:41:38;;;;;;;17.75;8.13;;;5.20;90.80;;;;;;5031503;28;20047;-76
2022/01/15 02:44:14;;;;;;;17.95;8.02;;;5.20;90.90;;;;;;5051555;28;20059;-76
2022/01/15 02:49:16;;;;;;;20.60;8.55;;;5.10;90.80;;;;;;5041797;28;20595;-76
2022/01/15 02:51:41;;;;;;;11.38;6.30;;;5.10;90.90;;;;;;5030745;28;20045;-76
2022/01/15 02:54:08;;;;;;;17.73;7.23;;;5.10;90.90;;;;;;5006889;28;20067;-76
2022/01/15 02:56:35;;;;;;;12.07;6.28;;;5.10;90.90;;;;;;5037676;28;20459;-76
2022/01/15 02:59:03;;;;;;;10.63;5.97;;;5.10;90.90;;;;;;5053005;28;20044;-76
2022/01/15 03:01:29;;;;;;;10.77;5.78;;;5.10;90.80;;;;;;5054434;28;20104;-76
2022/01/15 03:03:55;;;;;;;18.52;7.13;;;5.10;90.80;;;;;;5035592;28;20055;-76
2022/01/15 03:06:21;;;;;;;20.50;6.63;;;5.10;90.80;;;;;;5062779;28;20044;-76
2022/01/15 03:08:49;;;;;;;7.55;4.68;;;5.10;90.90;;;;;;5057599;28;20471;-76
2022/01/15 03:11:15;;;;;;;9.88;4.75;;;5.10;90.90;;;;;;5056627;28;20032;-76
2022/01/15 03:13:42;;;;;;;8.15;4.05;;;5.10;90.80;;;;;;5036934;28;20056;-76
2022/01/15 03:16:11;;;;;;;8.57;4.20;;;5.10;90.80;;;;;;5049597;28;20480;-76
2022/01/15 03:18:36;;;;;;;6.45;3.70;;;5.00;90.90;;;;;;5053546;28;20134;-76
2022/01/15 03:21:02;;;;;;;4.57;2.90;;;5.00;90.90;;;;;;5049476;28;20119;-76
2022/01/15 03:23:28;;;;;;;8.77;3.50;;;5.10;90.80;;;;;;5042291;28;20040;-76
2022/01/15 03:25:54;;;;;;;5.43;3.00;;;5.00;90.90;;;;;;5038734;28;20088;-76
2022/01/15 03:28:19;;;;;;;7.70;3.50;;;5.00;90.80;;;;;;5044800;28;20106;-76
2022/01/15 03:30:45;;;;;;;5.57;3.03;;;5.00;90.90;;;;;;5061938;28;20154;-76
2022/01/15 03:33:11;;;;;;;6.73;3.13;;;5.00;90.90;;;;;;5041849;28;20048;-76
2022/01/15 03:35:37;;;;;;;4.40;2.43;;;5.00;90.80;;;;;;5058388;28;20341;-76
2022/01/15 03:38:05;;;;;;;7.32;3.08;;;5.00;90.90;;;;;;5035200;28;20491;-76
2022/01/15 03:40:31;;;;;;;5.40;2.85;;;5.00;90.80;;;;;;5059283;28;20109;-76
2022/01/15 03:42:57;;;;;;;4.80;3.20;;;5.00;90.80;;;;;;5053638;28;20051;-76
2022/01/15 03:45:22;;;;;;;8.83;3.60;;;5.00;90.80;;;;;;5022666;28;20044;-76
2022/01/15 03:47:49;;;;;;;9.87;4.03;;;5.00;90.80;;;;;;5043841;28;20430;-76
2022/01/15 03:50:15;;;;;;;11.52;4.13;;;5.00;90.80;;;;;;5047399;28;20036;-76
2022/01/15 03:52:41;;;;;;;6.78;2.80;;;5.00;90.80;;;;;;5031847;28;20107;-76
2022/01/15 03:55:08;;;;;;;8.00;2.87;;;4.90;90.80;;;;;;5033717;28;20048;-76
2022/01/15 03:57:34;;;;;;;8.27;3.20;;;4.90;90.80;;;;;;5058158;28;20484;-76
2022/01/15 04:00:00;;;;;;;6.85;3.33;;;4.90;90.90;;;;;;5035298;28;20046;-76
2022/01/15 04:02:27;;;;;;;15.97;4.40;;;4.90;90.90;;;;;;5060067;28;20036;-76
2022/01/15 04:04:53;;;;;;;12.13;3.67;;;4.90;90.90;;;;;;5049863;28;20052;-76
2022/01/15 04:07:19;;;;;;;6.10;2.50;;;4.90;90.90;;;;;;5060817;28;20054;-76
2022/01/15 04:09:44;;;;;;;5.40;2.60;;;4.80;90.80;;;;;;5031759;28;20515;-75
2022/01/15 04:12:10;;;;;;;9.13;3.10;;;4.80;90.90;;;;;;5031488;28;20153;-76
2022/01/15 04:14:36;;;;;;;5.80;2.80;;;4.80;90.90;;;;;;5033896;28;20040;-76
2022/01/15 04:17:02;;;;;;;7.27;2.80;;;4.80;90.90;;;;;;5041986;28;20063;-76
2022/01/15 04:19:29;;;;;;;14.13;3.83;;;4.80;90.90;;;;;;5059606;28;20212;-76
2022/01/15 04:21:55;;;;;;;10.45;3.65;;;4.80;90.80;;;;;;5043629;28;20098;-76
2022/01/15 04:24:20;;;;;;;5.93;2.60;;;4.80;90.80;;;;;;5064767;28;20087;-76
2022/01/15 04:26:47;;;;;;;9.80;3.63;;;4.80;90.80;;;;;;5060420;28;20297;-76
2022/01/15 04:29:15;;;;;;;7.93;3.05;;;4.80;90.80;;;;;;5033442;28;20059;-76
2022/01/15 04:31:48;;;;;;;7.93;3.00;;;4.80;90.80;;;;;;5064830;28;20080;-76
2022/01/15 04:34:15;;;;;;;6.38;3.22;;;4.80;90.80;;;;;;5041135;28;20412;-76
2022/01/15 04:36:41;;;;;;;7.72;3.10;;;4.80;90.80;;;;;;5036194;28;20032;-76
2022/01/15 04:39:07;;;;;;;11.77;4.00;;;4.80;90.80;;;;;;5063126;28;20040;-76
2022/01/15 04:41:32;;;;;;;11.67;3.87;;;4.80;90.80;;;;;;5031829;28;20040;-77
2022/01/15 04:43:58;;;;;;;6.20;2.93;;;4.90;90.80;;;;;;5041953;28;20082;-76
2022/01/15 04:46:24;;;;;;;6.57;3.27;;;4.80;90.90;;;;;;5050949;28;20478;-76
2022/01/15 04:48:49;;;;;;;8.80;3.80;;;4.90;90.90;;;;;;5016708;28;20051;-77
2022/01/15 04:51:15;;;;;;;7.63;3.63;;;4.90;90.90;;;;;;5056537;28;20052;-76
2022/01/15 04:53:41;;;;;;;7.90;4.27;;;4.80;90.80;;;;;;5044339;28;20048;-76
2022/01/15 04:56:06;;;;;;;6.70;2.87;;;4.80;90.80;;;;;;5055715;28;20084;-76
2022/01/15 04:58:32;;;;;;;6.47;2.90;;;4.80;90.80;;;;;;5045226;28;20044;-76
2022/01/15 05:00:58;;;;;;;5.27;2.60;;;4.90;90.80;;;;;;5055609;28;20039;-77
2022/01/15 05:03:23;;;;;;;7.37;2.67;;;4.80;90.80;;;;;;5036429;28;20071;-76
2022/01/15 05:05:49;;;;;;;4.07;2.30;;;4.80;90.80;;;;;;5032102;28;20369;-76
2022/01/15 05:08:15;;;;;;;3.53;2.10;;;4.80;90.80;;;;;;5025263;28;20067;-76
2022/01/15 05:10:46;;;;;;;4.90;2.07;;;4.80;90.80;;;;;;5042131;28;20469;-76
2022/01/15 05:13:14;;;;;;;5.30;1.98;;;4.80;90.80;;;;;;5068496;28;20154;-77
2022/01/15 05:15:44;;;;;;;5.45;1.60;;;4.80;90.90;;;;;;5039746;28;20036;-76
2022/01/15 05:18:10;;;;;;;4.57;1.17;;;4.80;90.80;;;;;;5043583;28;20056;-76
2022/01/15 05:20:40;;;;;;;3.57;1.13;;;4.80;90.80;;;;;;5053799;28;20040;-76
2022/01/15 05:23:06;;;;;;;4.10;1.30;;;4.80;90.80;;;;;;5046817;28;20049;-76
2022/01/15 05:25:32;;;;;;;3.07;1.20;;;4.70;90.80;;;;;;5059925;28;20048;-76
2022/01/15 05:27:57;;;;;;;2.60;1.00;;;4.70;90.70;;;;;;5040154;28;20055;-76
2022/01/15 05:30:23;;;;;;;2.83;0.93;;;4.70;90.80;;;;;;5044480;28;20101;-76
2022/01/15 05:32:49;;;;;;;2.87;0.97;;;4.70;90.80;;;;;;5070822;28;20044;-76
2022/01/15 05:35:14;;;;;;;2.97;0.87;;;4.60;90.70;;;;;;5034161;28;20029;-76
2022/01/15 05:37:40;;;;;;;3.83;1.10;;;4.60;90.80;;;;;;5045502;28;20036;-76
2022/01/15 05:40:06;;;;;;;1.83;0.80;;;4.60;90.80;;;;;;5060166;28;20134;-76
2022/01/15 05:42:32;;;;;;;2.33;0.73;;;4.60;90.70;;;;;;5059182;28;20046;-76
2022/01/15 05:44:58;;;;;;;4.37;1.00;;;4.60;90.80;;;;;;5054279;28;20422;-76
2022/01/15 05:47:24;;;;;;;2.03;0.67;;;4.50;90.80;;;;;;5040710;28;20044;-76
2022/01/15 05:49:51;;;;;;;2.77;0.70;;;4.50;90.80;;;;;;5034631;28;20067;-76
2022/01/15 05:52:16;;;;;;;3.42;0.60;;;4.50;90.80;;;;;;5051645;28;20048;-76
2022/01/15 05:54:42;;;;;;;1.87;0.50;;;4.50;90.80;;;;;;5053449;28;20060;-76
2022/01/15 05:57:08;;;;;;;2.50;0.60;;;4.40;90.70;;;;;;5036347;28;20428;-75
2022/01/15 05:59:34;;;;;;;1.63;0.67;;;4.40;90.80;;;;;;5066456;28;20037;-75
2022/01/15 06:02:00;;;;;;;1.87;0.77;;;4.40;90.60;;;;;;5052353;28;20504;-75
2022/01/15 06:04:25;;;;;;;4.10;1.20;;;4.40;90.70;;;;;;5046281;28;20043;-75
2022/01/15 06:06:51;;;;;;;3.03;1.50;;;4.30;90.80;;;;;;5022265;28;20036;-75
2022/01/15 06:09:17;;;;;;;4.30;1.43;;;4.30;90.80;;;;;;5048935;28;20453;-75
2022/01/15 06:11:43;;;;;;;2.17;0.90;;;4.30;90.70;;;;;;5036610;28;20039;-75
2022/01/15 06:14:09;;;;;;;2.97;1.00;;;4.30;90.80;;;;;;5034830;28;20487;-75
2022/01/15 06:16:36;;;;;;;3.63;1.10;;;4.30;90.70;;;;;;5026127;28;20033;-76
2022/01/15 06:19:02;;;;;;;3.63;0.90;;;4.30;90.70;;;;;;5032931;28;20037;-76
2022/01/15 06:21:28;;;;;;;2.53;0.80;;;4.30;90.60;;;;;;5053135;28;20067;-76
2022/01/15 06:23:54;;;;;;;2.33;0.90;;;4.20;90.60;;;;;;5042254;28;20044;-75
2022/01/15 06:26:19;;;;;;;1.40;0.60;;;4.20;90.60;;;;;;5034681;28;20070;-75
2022/01/15 06:28:45;;;;;;;2.07;0.60;;;4.20;90.70;;;;;;5060235;28;20051;-75
2022/01/15 06:31:12;;;;;;;2.73;0.70;;;4.20;90.60;;;;;;5035317;28;20397;-75
2022/01/15 06:33:38;;;;;;;3.33;0.77;;;4.20;90.60;;;;;;5053540;28;20122;-75
2022/01/15 06:36:03;;;;;;;2.87;0.90;;;4.20;90.60;;;;;;5051025;28;20120;-75
2022/01/15 06:38:29;;;;;;;2.10;1.00;;;4.20;90.60;;;;;;5030125;28;20403;-75
2022/01/15 06:40:55;;;;;;;2.63;0.93;;;4.20;90.60;;;;;;5049115;28;20078;-75
2022/01/15 06:43:20;;;;;;;1.83;0.80;;;4.20;90.60;;;;;;5034946;28;20037;-75
2022/01/15 06:45:46;;;;;;;2.37;0.93;;;4.20;90.60;;;;;;5057447;28;20048;-75
2022/01/15 06:48:12;;;;;;;2.03;0.90;;;4.10;90.60;;;;;;5065515;28;20092;-75
2022/01/15 06:50:37;;;;;;;2.47;0.90;;;4.10;90.60;;;;;;5052395;28;20035;-75
2022/01/15 06:53:03;;;;;;;1.63;0.77;;;4.10;90.50;;;;;;5048589;28;20407;-75
2022/01/15 06:55:30;;;;;;;2.37;0.90;;;4.10;90.50;;;;;;5052628;28;20064;-75
2022/01/15 06:57:56;;;;;;;2.55;1.08;;;4.10;90.60;;;;;;5016498;28;20398;-75
2022/01/15 07:00:24;;;;;;;3.28;0.90;;;4.10;90.60;;;;;;5028862;28;20048;-77
2022/01/15 07:02:50;;;;;;;2.97;1.10;;;4.10;90.60;;;;;;5029744;28;20401;-76
2022/01/15 07:05:15;;;;;;;3.40;1.50;;;4.10;90.60;;;;;;5038520;28;20059;-75
2022/01/15 07:07:45;;;;;;;5.13;2.70;;;4.10;90.60;;;;;;5028353;28;20051;-76
2022/01/15 07:10:12;;;;;;;2.95;1.30;;;4.10;90.50;;;;;;5049648;28;20708;-75
2022/01/15 07:12:37;;;;;;;2.95;1.25;;;4.10;90.50;;;;;;5049515;28;20047;-75
2022/01/15 07:15:04;;;;;;;2.27;1.20;;;4.20;90.50;;;;;;5032501;28;20489;-75
2022/01/15 07:17:31;;;;;;;4.60;1.70;;;4.10;90.60;;;;;;5066618;28;20497;-77
2022/01/15 07:19:57;;;;;;;2.75;1.30;;;4.10;90.50;;;;;;5064915;28;20058;-75
2022/01/15 07:22:23;;;;;;;2.22;1.05;;;4.20;90.50;;;;;;5044353;28;20059;-75
2022/01/15 07:24:48;;;;;;;3.33;1.70;;;4.10;90.60;;;;;;5043741;28;20036;-75
2022/01/15 07:27:14;;;;;;;3.13;1.80;;;4.10;90.50;;;;;;5052336;28;20086;-75
2022/01/15 07:29:40;;;;;;;4.63;2.20;;;4.10;90.50;;;;;;5021641;28;20185;-75
2022/01/15 07:32:06;;;;;;;5.07;2.30;;;4.10;90.60;;;;;;5039047;28;20040;-75
2022/01/15 07:34:32;;;;;;;4.90;2.90;;;4.10;90.40;;;;;;5068537;28;20488;-75
2022/01/15 07:36:58;;;;;;;4.72;2.65;;;4.10;90.50;;;;;;5037031;28;20101;-75
2022/01/15 07:39:25;;;;;;;6.10;2.93;;;4.10;90.60;;;;;;5036974;28;20045;-75
2022/01/15 07:41:52;;;;;;;4.95;2.45;;;4.10;90.50;;;;;;5044181;28;20310;-75
2022/01/15 07:44:18;;;;;;;7.20;2.42;;;4.10;90.50;;;;;;5032506;28;20076;-75
2022/01/15 07:46:43;;;;;;;5.60;2.40;;;4.10;90.50;;;;;;5036196;28;20068;-75
2022/01/15 07:49:09;;;;;;;5.63;2.50;;;4.10;90.50;;;;;;5040918;28;20370;-75
2022/01/15 07:51:35;;;;;;;4.40;2.50;;;4.10;90.50;;;;;;5043913;28;20047;-75
2022/01/15 07:54:01;;;;;;;5.40;2.40;;;4.10;90.50;;;;;;5048845;28;20040;-75
2022/01/15 07:56:27;;;;;;;5.07;2.33;;;4.10;90.50;;;;;;5051625;28;20040;-75
2022/01/15 07:58:52;;;;;;;5.97;2.33;;;4.10;90.50;;;;;;5038755;28;20036;-75
2022/01/15 08:01:18;;;;;;;5.00;2.17;;;4.10;90.50;;;;;;5029022;28;20424;-75
2022/01/15 08:03:44;;;;;;;6.40;2.90;;;4.10;90.50;;;;;;5024021;28;20385;-75
2022/01/15 08:06:11;;;;;;;6.20;3.03;;;4.10;90.50;;;;;;5037294;28;20055;-75
2022/01/15 08:08:37;;;;;;;8.35;3.30;;;4.10;90.40;;;;;;5033385;28;20128;-75
2022/01/15 08:11:03;;;;;;;7.00;2.73;;;4.10;90.50;;;;;;5035403;28;20170;-75
2022/01/15 08:13:31;;;;;;;8.60;3.42;;;4.10;90.50;;;;;;5042301;28;20096;-75
2022/01/15 08:15:57;;;;;;;9.55;4.00;;;4.10;90.50;;;;;;5038330;28;20040;-75
2022/01/15 08:18:24;;;;;;;10.70;4.03;;;4.10;90.50;;;;;;5064207;28;20353;-76
2022/01/15 08:20:50;;;;;;;10.18;4.22;;;4.10;90.50;;;;;;5031799;28;20520;-75
2022/01/15 08:23:16;;;;;;;10.73;4.27;;;4.00;90.50;;;;;;5024445;28;20048;-75
2022/01/15 08:25:41;;;;;;;11.53;4.10;;;4.10;90.40;;;;;;5029649;28;20041;-75
2022/01/15 08:28:07;;;;;;;12.00;5.23;;;4.10;90.40;;;;;;5054468;28;20048;-75
2022/01/15 08:30:33;;;;;;;12.27;4.80;;;4.10;90.50;;;;;;5046910;28;20033;-75
2022/01/15 08:32:59;;;;;;;10.43;4.77;;;4.10;90.50;;;;;;5039255;28;20094;-75
2022/01/15 08:35:24;;;;;;;13.77;4.87;;;4.10;90.50;;;;;;5038625;28;20471;-75
2022/01/15 08:37:51;;;;;;;14.27;5.37;;;4.10;90.40;;;;;;5039139;28;20117;-75
2022/01/15 08:40:20;;;;;;;13.43;4.85;;;4.10;90.50;;;;;;5051290;28;20049;-75
2022/01/15 08:42:46;;;;;;;11.07;4.53;;;4.20;90.50;;;;;;5058140;28;20329;-75
2022/01/15 08:45:14;;;;;;;13.73;5.25;;;4.20;90.40;;;;;;5057633;28;20560;-75
2022/01/15 08:47:40;;;;;;;10.13;4.05;;;4.20;90.40;;;;;;5056473;28;20051;-75
2022/01/15 08:50:08;;;;;;;10.15;4.95;;;4.20;90.50;;;;;;5060805;28;20677;-75
2022/01/15 08:52:35;;;;;;;16.20;5.75;;;4.20;90.50;;;;;;5060516;28;20119;-75
2022/01/15 08:55:05;;;;;;;15.45;4.95;;;4.20;90.40;;;;;;5073863;28;20448;-75
2022/01/15 08:57:31;;;;;;;14.68;7.60;;;4.20;90.50;;;;;;5042689;28;20036;-75
2022/01/15 08:59:57;;;;;;;15.80;6.68;;;4.20;90.50;;;;;;5059806;28;20044;-75
2022/01/15 09:02:23;;;;;;;38.75;18.13;;;4.20;90.40;;;;;;5042590;28;20047;-75
2022/01/15 09:04:49;;;;;;;25.53;12.97;;;4.30;90.40;;;;;;5058679;28;20463;-75
2022/01/15 09:07:15;;;;;;;23.97;11.27;;;4.30;90.50;;;;;;5024402;28;20290;-75
2022/01/15 09:09:41;;;;;;;16.33;7.60;;;4.30;90.50;;;;;;5012084;28;20056;-75
2022/01/15 09:12:07;;;;;;;17.00;6.93;;;4.30;90.60;;;;;;5030058;28;20045;-75
2022/01/15 09:14:32;;;;;;;18.33;6.60;;;4.30;90.50;;;;;;5037617;28;20082;-75
2022/01/15 09:16:59;;;;;;;17.17;8.23;;;4.40;90.50;;;;;;5042345;28;20040;-75
2022/01/15 09:19:24;;;;;;;20.48;7.50;;;4.40;90.50;;;;;;5070058;28;20058;-76
2022/01/15 09:21:50;;;;;;;11.07;4.60;;;4.40;90.50;;;;;;5050026;28;20044;-75
2022/01/15 09:24:16;;;;;;;11.33;4.40;;;4.40;90.60;;;;;;5051538;28;20411;-75
2022/01/15 09:32:01;;;;;;;11.45;4.82;;;4.40;90.50;;;;;;5069456;28;20109;-75
2022/01/15 09:34:28;;;;;;;9.65;4.03;;;4.30;90.50;;;;;;5036187;28;20560;-75
2022/01/15 09:36:54;;;;;;;11.70;5.95;;;4.30;90.50;;;;;;5038405;28;20041;-76
2022/01/15 09:39:20;;;;;;;9.43;4.33;;;4.30;90.50;;;;;;5049440;28;20037;-75
2022/01/15 09:41:48;;;;;;;9.35;4.35;;;4.30;90.50;;;;;;5049622;28;20776;-75
2022/01/15 09:44:17;;;;;;;9.27;4.03;;;4.30;90.50;;;;;;5052517;28;20036;-75
2022/01/15 09:46:45;;;;;;;9.13;4.40;;;4.30;90.40;;;;;;5069770;28;20036;-75
2022/01/15 09:49:15;;;;;;;9.43;4.32;;;4.30;90.30;;;;;;5060836;28;20123;-75
2022/01/15 09:51:43;;;;;;;6.75;3.38;;;4.30;90.40;;;;;;5054994;28;20409;-75
2022/01/15 09:54:08;;;;;;;7.72;3.40;;;4.30;90.40;;;;;;5062322;28;20135;-75
2022/01/15 09:56:34;;;;;;;7.23;3.40;;;4.30;90.40;;;;;;5062360;28;20170;-75
2022/01/15 09:59:02;;;;;;;8.83;3.37;;;4.30;90.40;;;;;;5040025;28;20036;-75
2022/01/15 10:01:29;;;;;;;10.35;3.90;;;4.30;90.30;;;;;;5043286;28;20055;-75
2022/01/15 10:03:56;;;;;;;8.80;3.70;;;4.30;90.20;;;;;;5044864;28;20041;-75
2022/01/15 10:06:22;;;;;;;6.75;3.47;;;4.30;90.30;;;;;;5050017;28;20139;-75
2022/01/15 10:09:08;;;;;;;9.00;3.60;;;4.30;90.30;;;;;;5065450;28;20119;-75
2022/01/15 10:11:46;;;;;;;11.50;4.40;;;4.30;90.20;;;;;;5052568;28;20028;-75
2022/01/15 10:14:27;;;;;;;9.25;4.40;;;4.30;90.10;;;;;;5058469;28;20157;-75
2022/01/15 10:16:53;;;;;;;9.50;3.53;;;4.30;90.20;;;;;;5062945;28;20052;-75
2022/01/15 10:19:31;;;;;;;10.88;3.95;;;4.30;90.10;;;;;;5061889;28;20032;-75
2022/01/15 10:22:07;;;;;;;8.73;4.32;;;4.30;90.20;;;;;;5046477;28;20091;-75
2022/01/15 10:24:33;;;;;;;25.58;5.25;;;4.30;90.00;;;;;;5046905;28;20105;-75
2022/01/15 10:27:17;;;;;;;14.77;5.33;;;4.30;90.10;;;;;;5043748;28;20135;-75
2022/01/15 10:30:06;;;;;;;18.65;5.82;;;4.30;90.10;;;;;;5062259;28;20672;-76
2022/01/15 10:32:38;;;;;;;23.42;8.80;;;4.30;90.10;;;;;;5069843;28;20424;-75
2022/01/15 10:35:16;;;;;;;21.17;8.23;;;4.30;90.10;;;;;;5060137;28;20044;-75
2022/01/15 10:38:03;;;;;;;15.43;6.55;;;4.30;90.10;;;;;;5045886;28;20435;-75
2022/01/15 10:40:46;;;;;;;24.42;9.52;;;4.30;90.10;;;;;;5066292;28;20093;-75
2022/01/15 10:43:18;;;;;;;20.08;6.82;;;4.30;90.10;;;;;;5062007;28;20044;-75
2022/01/15 10:45:53;;;;;;;21.23;7.05;;;4.30;90.10;;;;;;5049594;28;20083;-75
2022/01/15 10:48:31;;;;;;;22.13;7.53;;;4.30;90.10;;;;;;5050850;28;20458;-75
2022/01/15 10:51:03;;;;;;;27.77;8.90;;;4.30;90.00;;;;;;5051196;28;20056;-75
2022/01/15 10:53:36;;;;;;;25.33;9.90;;;4.20;89.90;;;;;;5046401;28;20145;-75
2022/01/15 10:56:03;;;;;;;21.83;8.85;;;4.20;89.80;;;;;;5051657;28;20056;-75
2022/01/15 10:58:29;;;;;;;30.02;10.48;;;4.20;89.80;;;;;;5051201;28;20052;-75
2022/01/15 11:00:55;;;;;;;27.00;11.20;;;4.20;89.80;;;;;;5045522;28;20033;-75
2022/01/15 11:03:22;;;;;;;40.97;12.97;;;4.20;89.80;;;;;;5052107;28;20054;-75
2022/01/15 11:05:52;;;;;;;45.95;13.13;;;4.20;89.80;;;;;;5053686;28;20067;-75
2022/01/15 11:08:26;;;;;;;61.55;15.40;;;4.10;89.80;;;;;;5061535;28;20499;-75
2022/01/15 11:11:05;;;;;;;44.10;14.02;;;4.10;89.70;;;;;;5056946;28;20041;-75
2022/01/15 11:13:36;;;;;;;58.40;16.35;;;4.10;89.70;;;;;;5053104;28;20040;-75
2022/01/15 11:16:08;;;;;;;65.10;17.70;;;4.10;89.60;;;;;;5050631;28;20047;-75
2022/01/15 11:18:37;;;;;;;57.78;16.92;;;4.10;89.70;;;;;;5052888;28;20135;-75
2022/01/15 11:21:05;;;;;;;79.18;18.88;;;4.10;89.70;;;;;;5041406;28;20046;-75
2022/01/15 11:23:33;;;;;;;75.38;21.73;;;4.10;89.90;;;;;;5052184;28;20059;-75
2022/01/15 11:26:01;;;;;;;68.80;19.05;;;4.10;89.80;;;;;;5017718;28;20447;-75
2022/01/15 11:28:30;;;;;;;81.65;20.88;;;4.20;89.90;;;;;;5038873;28;20485;-75
2022/01/15 11:31:02;;;;;;;96.32;24.17;;;4.20;89.80;;;;;;5056222;28;20101;-75
2022/01/15 11:33:32;;;;;;;49.90;19.65;;;4.20;89.90;;;;;;5058521;28;20036;-75
2022/01/15 11:35:58;;;;;;;60.95;21.75;;;4.20;89.90;;;;;;5054525;28;20087;-75
2022/01/15 11:38:38;;;;;;;92.05;24.10;;;4.20;89.90;;;;;;5060529;28;20035;-75
2022/01/15 11:41:04;;;;;;;63.10;19.17;;;4.20;89.90;;;;;;5065362;28;20578;-75
2022/01/15 11:43:35;;;;;;;63.40;19.45;;;4.30;90.00;;;;;;5030204;28;20079;-75
2022/01/15 11:46:20;;;;;;;73.40;18.35;;;4.20;89.90;;;;;;5055229;28;20051;-75
2022/01/15 11:48:46;;;;;;;104.72;23.38;;;4.20;89.70;;;;;;5040341;28;20039;-75
2022/01/15 11:51:14;;;;;;;110.03;22.43;;;4.20;89.80;;;;;;5010535;28;20135;-75
2022/01/15 11:53:59;;;;;;;79.28;21.75;;;4.20;89.70;;;;;;5055112;28;20067;-75
2022/01/15 11:56:29;;;;;;;59.47;19.02;;;4.20;89.60;;;;;;5059486;28;20048;-75
2022/01/15 11:59:17;;;;;;;47.40;17.00;;;4.20;89.70;;;;;;5059994;28;20052;-75
2022/01/15 12:01:43;;;;;;;36.10;15.70;;;4.20;89.80;;;;;;5032396;28;20500;-75
2022/01/15 12:04:35;;;;;;;36.10;14.93;;;4.20;89.70;;;;;;5013197;28;20126;-75
2022/01/15 12:07:01;;;;;;;33.92;14.63;;;4.20;89.80;;;;;;5060047;28;20083;-75
2022/01/15 12:09:38;;;;;;;37.67;13.47;;;4.10;89.60;;;;;;5038577;28;20079;-75
2022/01/15 12:12:31;;;;;;;40.38;15.70;;;4.20;89.70;;;;;;5055430;28;20028;-75
2022/01/15 12:14:57;;;;;;;31.80;13.82;;;4.10;89.60;;;;;;5052569;28;20051;-75
2022/01/15 12:17:22;;;;;;;36.50;14.47;;;4.10;89.60;;;;;;5057033;28;20040;-75
2022/01/15 12:19:49;;;;;;;44.37;14.30;;;4.10;89.50;;;;;;5041399;28;20036;-75
2022/01/15 12:22:43;;;;;;;36.53;14.27;;;4.10;89.50;;;;;;5023862;28;20056;-75
2022/01/15 12:25:11;;;;;;;24.25;12.25;;;4.00;89.40;;;;;;5063038;28;20098;-75
2022/01/15 12:27:39;;;;;;;27.42;12.73;;;4.00;89.40;;;;;;5053995;28;20173;-75
2022/01/15 12:30:15;;;;;;;24.90;11.93;;;4.00;89.40;;;;;;5050359;28;20474;-75
2022/01/15 12:32:44;;;;;;;27.50;12.30;;;4.00;89.40;;;;;;5051545;28;20064;-74
2022/01/15 12:35:16;;;;;;;25.45;12.30;;;4.00;89.40;;;;;;5041553;28;20047;-75
2022/01/15 12:38:26;;;;;;;31.30;12.88;;;4.10;89.40;;;;;;5057294;28;20039;-75
2022/01/15 12:41:02;;;;;;;28.98;12.30;;;4.10;89.50;;;;;;5003245;28;20044;-75
2022/01/15 12:43:30;;;;;;;27.73;12.88;;;4.10;89.40;;;;;;5041834;28;20102;-75
2022/01/15 12:45:59;;;;;;;31.75;12.90;;;4.10;89.30;;;;;;5035041;28;20072;-74
2022/01/15 12:48:27;;;;;;;39.45;15.05;;;4.10;89.30;;;;;;5063686;28;20069;-75
2022/01/15 12:51:09;;;;;;;34.70;15.15;;;4.00;89.30;;;;;;5050538;28;20040;-75
2022/01/15 12:53:38;;;;;;;31.80;14.00;;;4.00;89.20;;;;;;5052346;28;20031;-75
2022/01/15 12:56:12;;;;;;;30.48;15.52;;;4.10;89.30;;;;;;5040005;28;20082;-75
2022/01/15 12:58:41;;;;;;;34.85;15.93;;;4.10;89.50;;;;;;5057325;28;20123;-74
2022/01/15 13:01:09;;;;;;;37.90;16.23;;;4.10;89.40;;;;;;5054759;28;20046;-74
2022/01/15 13:03:39;;;;;;;39.20;15.93;;;4.10;89.50;;;;;;5056925;28;20144;-74
2022/01/15 13:06:07;;;;;;;48.50;18.15;;;4.10;89.30;;;;;;5057882;28;20041;-75
2022/01/15 13:08:40;;;;;;;42.03;17.67;;;4.10;89.40;;;;;;5055079;28;20496;-75
2022/01/15 13:11:19;;;;;;;47.38;18.35;;;4.10;89.40;;;;;;5044437;28;20218;-75
2022/01/15 13:13:47;;;;;;;54.33;19.48;;;4.10;89.40;;;;;;5040827;28;20044;-75
2022/01/15 13:16:14;;;;;;;48.67;20.40;;;4.10;89.40;;;;;;5057613;28;20037;-75
2022/01/15 13:18:45;;;;;;;71.70;23.02;;;4.10;89.40;;;;;;5056405;28;20032;-74
2022/01/15 13:21:18;;;;;;;60.22;20.30;;;4.10;89.40;;;;;;5054620;28;20048;-75
2022/01/15 13:23:49;;;;;;;50.08;20.23;;;4.10;89.40;;;;;;5040083;28;20040;-75